Terminal Aerodrome Forecast
Issued by NWS

Home | Current Version | Previous Version | Text Only | Print | Product List | Glossary On
Versions: 1 2 3 4 5 6 7 8 9 10 11 12 13 14 15 16 17 18 19 20 21 22 23 24 25 26 27 28 29 30 31 32 33 34 35 36 37 38 39 40 41 42 43 44 45 46 47 48 49 50
516
FTUS41 KCTP 091318 AAA
TAFJST
TAF AMD
KJST 091318Z 0913/1012 29005KT 1 1/2SM -SN BKN005 OVC025
     FM091500 16005KT 1SM -SN BR OVC005
     FM091700 25007KT 3/4SM -SN BR OVC004
     FM100200 28010KT 2SM -SHSN BR OVC007
     FM101100 29010G20KT 3SM -SHSN BR OVC009=

USA.gov is the U.S. government's official web portal to all federal, state and local government web resources and services.